createdAt,value
2018-04-27T00:08:58.439Z,6.7
2018-04-27T00:09:58.449Z,6.9
2018-04-27T00:11:58.601Z,6.7
2018-04-27T00:12:58.617Z,6.9
2018-04-27T00:14:58.724Z,6.7
2018-04-27T00:15:58.786Z,6.9
2018-04-27T00:16:58.843Z,6.7
2018-04-27T00:29:59.636Z,6.6
2018-04-27T00:30:59.742Z,6.7
2018-04-27T00:34:59.943Z,6.6
2018-04-27T00:49:01.352Z,6.5
2018-04-27T00:50:01.423Z,6.6
2018-04-27T00:51:01.567Z,6.5
2018-04-27T01:00:01.816Z,6.4
2018-04-27T01:08:02.028Z,6.2
2018-04-27T01:09:02.044Z,6.4
2018-04-27T01:12:02.242Z,6.2
2018-04-27T01:14:02.350Z,6.4
2018-04-27T01:16:02.520Z,6.2
2018-04-27T01:17:02.578Z,6.4
2018-04-27T01:30:03.333Z,6.2
2018-04-27T01:31:03.478Z,6.4
2018-04-27T01:33:03.609Z,6.2
2018-04-27T01:35:03.755Z,6.4
2018-04-27T01:36:03.731Z,6.2
2018-04-27T01:56:04.934Z,6.1
2018-04-27T01:59:05.123Z,6
2018-04-27T02:01:05.497Z,5.9
2018-04-27T02:02:05.336Z,5.7
2018-04-27T02:05:05.546Z,5.6
2018-04-27T02:07:05.658Z,5.5
2018-04-27T02:09:05.737Z,5.4
2018-04-27T02:10:05.881Z,5.2
2018-04-27T02:13:05.988Z,5.1
2018-04-27T02:16:06.154Z,5
2018-04-27T02:18:06.306Z,4.9
2018-04-27T02:20:06.427Z,4.7
2018-04-27T02:24:06.743Z,4.6
2018-04-27T02:27:06.883Z,4.5
2018-04-27T02:30:07.113Z,4.4
2018-04-27T02:31:07.119Z,4.5
2018-04-27T02:32:07.240Z,4.4
2018-04-27T02:34:07.299Z,4.2
2018-04-27T02:39:07.627Z,4.1
2018-04-27T02:45:07.970Z,4
2018-04-27T02:55:08.554Z,3.9
2018-04-27T03:01:08.915Z,3.7
2018-04-27T03:13:09.699Z,3.6
2018-04-27T03:18:10.008Z,3.5
2018-04-27T03:27:10.556Z,3.4
2018-04-27T03:34:10.958Z,3.2
2018-04-27T03:43:11.518Z,3.1
2018-04-27T03:44:11.605Z,3.2
2018-04-27T03:47:11.747Z,3.1
2018-04-27T03:49:11.857Z,3.2
2018-04-27T04:05:12.899Z,3.4
2018-04-27T04:12:13.310Z,3.5
2018-04-27T04:17:13.591Z,3.6
2018-04-27T04:22:13.913Z,3.7
2018-04-27T04:25:14.098Z,3.9
2018-04-27T04:28:14.319Z,4
2018-04-27T04:32:14.522Z,4.1
2018-04-27T04:35:14.732Z,4.2
2018-04-27T04:39:14.944Z,4.4
2018-04-27T04:43:15.223Z,4.5
2018-04-27T04:46:15.360Z,4.6
2018-04-27T04:49:15.581Z,4.7
2018-04-27T04:51:15.715Z,4.9
2018-04-27T04:54:15.879Z,5
2018-04-27T04:56:16.023Z,5.1
2018-04-27T04:59:16.217Z,5.2
2018-04-27T05:01:16.327Z,5.4
2018-04-27T05:03:16.457Z,5.5
2018-04-27T05:05:16.627Z,5.6
2018-04-27T05:07:16.658Z,5.7
2018-04-27T05:09:16.771Z,5.9
2018-04-27T05:12:16.962Z,6
2018-04-27T05:14:17.092Z,6.1
2018-04-27T05:17:17.277Z,6.2
2018-04-27T05:21:17.524Z,6.4
2018-04-27T05:23:17.651Z,6.5
2018-04-27T05:24:17.741Z,6.4
2018-04-27T05:25:17.757Z,6.5
2018-04-27T05:27:17.882Z,6.6
2018-04-27T05:30:18.064Z,6.7
2018-04-27T05:33:18.268Z,6.9
2018-04-27T05:35:18.455Z,7
2018-04-27T05:37:18.560Z,7.1
2018-04-27T05:39:18.695Z,7.2
2018-04-27T05:40:18.734Z,7.4
2018-04-27T05:41:18.795Z,7.5
2018-04-27T05:43:18.914Z,7.6
2018-04-27T05:44:18.970Z,7.7
2018-04-27T05:45:19.032Z,7.9
2018-04-27T05:46:19.091Z,8
2018-04-27T05:47:19.157Z,8.1
2018-04-27T05:48:19.301Z,8.3
2018-04-27T05:50:19.353Z,8.4
2018-04-27T05:51:19.413Z,8.5
2018-04-27T05:52:19.469Z,8.6
2018-04-27T05:54:19.550Z,8.8
2018-04-27T05:56:19.672Z,9
2018-04-27T05:58:19.801Z,8.9
2018-04-27T06:00:19.928Z,9.8
2018-04-27T06:01:19.983Z,11
2018-04-27T06:02:20.028Z,12.1
2018-04-27T06:03:20.115Z,12.8
2018-04-27T06:04:20.160Z,12.9
2018-04-27T06:05:20.243Z,13.5
2018-04-27T06:06:20.323Z,14.3
2018-04-27T06:07:20.391Z,15.1
2018-04-27T06:08:20.454Z,15.8
2018-04-27T06:09:20.520Z,16.5
2018-04-27T06:10:20.548Z,17.1
2018-04-27T06:11:20.598Z,17.6
2018-04-27T06:12:20.652Z,18.3
2018-04-27T06:13:20.722Z,18.5
2018-04-27T06:14:20.767Z,19
2018-04-27T06:15:20.832Z,19.3
2018-04-27T06:16:20.919Z,19.5
2018-04-27T06:17:21.039Z,19.9
2018-04-27T06:18:21.082Z,20.1
2018-04-27T06:19:21.132Z,20.5
2018-04-27T06:20:21.234Z,20.8
2018-04-27T06:21:21.280Z,20.9
2018-04-27T06:22:21.306Z,21.1
2018-04-27T06:23:21.367Z,21.4
2018-04-27T06:24:21.430Z,21.5
2018-04-27T06:25:21.516Z,21.8
2018-04-27T06:26:21.558Z,21.9
2018-04-27T06:28:21.669Z,22.1
2018-04-27T06:29:21.722Z,22.4
2018-04-27T06:30:21.802Z,22.8
2018-04-27T06:31:21.855Z,23
2018-04-27T06:32:21.875Z,23.3
2018-04-27T06:33:21.986Z,23.5
2018-04-27T06:34:22.035Z,23.7
2018-04-27T06:35:22.093Z,24
2018-04-27T06:36:22.165Z,24.3
2018-04-27T06:37:22.250Z,24.4
2018-04-27T06:38:22.298Z,24.6
2018-04-27T06:39:22.436Z,24.9
2018-04-27T06:40:22.411Z,25.1
2018-04-27T06:41:22.508Z,25.4
2018-04-27T06:42:22.546Z,25.5
2018-04-27T06:43:22.575Z,25.8
2018-04-27T06:45:22.680Z,25.6
2018-04-27T06:46:22.750Z,25.3
2018-04-27T06:47:22.813Z,25
2018-04-27T06:48:22.864Z,24.5
2018-04-27T06:49:22.967Z,23.9
2018-04-27T06:50:22.986Z,23.6
2018-04-27T06:51:23.097Z,24.3
2018-04-27T06:52:23.120Z,24.7
2018-04-27T06:53:23.228Z,25.3
2018-04-27T06:54:23.297Z,25.5
2018-04-27T06:55:23.428Z,25.4
2018-04-27T06:56:23.397Z,25.3
2018-04-27T06:57:23.465Z,25.1
2018-04-27T06:58:23.524Z,24.9
2018-04-27T06:59:23.673Z,24.4
2018-04-27T07:00:23.621Z,24.1
2018-04-27T07:01:23.692Z,24.4
2018-04-27T07:02:23.740Z,24.9
2018-04-27T07:03:23.834Z,25.5
2018-04-27T07:04:23.854Z,25.9
2018-04-27T07:05:23.981Z,26.2
2018-04-27T07:06:24.013Z,26.6
2018-04-27T07:07:24.034Z,27
2018-04-27T07:08:24.163Z,27.4
2018-04-27T07:09:24.218Z,27.6
2018-04-27T07:10:24.228Z,28
2018-04-27T07:11:24.279Z,28.1
2018-04-27T07:12:24.372Z,27.9
2018-04-27T07:13:24.462Z,27.4
2018-04-27T07:14:24.528Z,26.2
2018-04-27T07:15:24.597Z,25.1
2018-04-27T07:16:24.666Z,24.4
2018-04-27T07:17:24.719Z,23.9
2018-04-27T07:19:24.800Z,24.4
2018-04-27T07:20:24.941Z,25
2018-04-27T07:21:24.947Z,25.8
2018-04-27T07:22:25.006Z,26.4
2018-04-27T07:23:25.062Z,26.9
2018-04-27T07:24:25.124Z,27.4
2018-04-27T07:25:25.218Z,27.8
2018-04-27T07:26:25.281Z,27.9
2018-04-27T07:27:25.391Z,28.3
2018-04-27T07:28:25.381Z,28.6
2018-04-27T07:29:25.448Z,29
2018-04-27T07:30:25.526Z,29.3
2018-04-27T07:33:25.640Z,29.5
2018-04-27T07:34:25.751Z,29.8
2018-04-27T07:35:25.831Z,30
2018-04-27T07:36:25.819Z,30.3
2018-04-27T07:37:25.881Z,30.6
2018-04-27T07:39:26.004Z,31
2018-04-27T07:40:26.135Z,31.1
2018-04-27T07:41:26.136Z,31.5
2018-04-27T07:42:26.216Z,32
2018-04-27T07:43:26.296Z,32.4
2018-04-27T07:44:26.382Z,32.6
2018-04-27T07:45:26.543Z,32.9
2018-04-27T07:46:26.509Z,33
2018-04-27T07:47:26.522Z,32.4
2018-04-27T07:48:26.570Z,32.1
2018-04-27T07:49:26.659Z,32
2018-04-27T07:51:26.793Z,32.1
2018-04-27T07:52:26.817Z,32.4
2018-04-27T07:53:26.895Z,32.7
2018-04-27T07:54:26.933Z,33.1
2018-04-27T07:55:27.067Z,33.5
2018-04-27T07:56:27.050Z,33.7
2018-04-27T07:57:27.179Z,33.5
2018-04-27T07:58:27.173Z,33.7
2018-04-27T07:59:27.268Z,34.1
2018-04-27T08:00:27.299Z,34.5
2018-04-27T08:01:27.379Z,34.9
2018-04-27T08:02:27.579Z,35.1
2018-04-27T08:03:27.571Z,35.2
2018-04-27T08:04:27.626Z,35.4
2018-04-27T08:05:27.637Z,35.6
2018-04-27T08:10:27.961Z,35.9
2018-04-27T08:11:28.044Z,36
2018-04-27T08:13:28.117Z,36.1
2018-04-27T08:14:28.163Z,36.4
2018-04-27T08:15:28.331Z,36.5
2018-04-27T08:16:28.350Z,36.7
2018-04-27T08:17:28.409Z,36.9
2018-04-27T08:19:28.521Z,36.6
2018-04-27T08:20:28.606Z,37
2018-04-27T08:21:28.642Z,37.4
2018-04-27T08:22:28.660Z,37.6
2018-04-27T08:23:28.735Z,37.7
2018-04-27T08:24:28.859Z,37.6
2018-04-27T08:27:28.974Z,38
2018-04-27T08:28:29.026Z,38.2
2018-04-27T08:29:29.099Z,38.4
2018-04-27T08:30:29.151Z,38.2
2018-04-27T08:33:29.336Z,38.5
2018-04-27T08:34:29.414Z,38.7
2018-04-27T08:36:29.541Z,39
2018-04-27T08:37:29.600Z,39.1
2018-04-27T08:38:29.673Z,39.2
2018-04-27T08:39:29.747Z,39.4
2018-04-27T08:40:29.773Z,39.5
2018-04-27T08:41:29.845Z,39.6
2018-04-27T08:42:29.897Z,39.7
2018-04-27T08:44:30.021Z,40
2018-04-27T08:45:30.081Z,40.1
2018-04-27T08:46:30.185Z,40.2
2018-04-27T08:47:30.218Z,40
2018-04-27T08:49:30.377Z,39.9
2018-04-27T08:50:30.462Z,40
2018-04-27T08:51:30.507Z,39.4
2018-04-27T08:52:30.574Z,39.2
2018-04-27T08:53:30.614Z,39.6
2018-04-27T08:54:30.677Z,39.7
2018-04-27T08:55:30.730Z,39.9
2018-04-27T08:56:30.821Z,40
2018-04-27T08:57:30.815Z,39.9
2018-04-27T08:58:30.961Z,40
2018-04-27T08:59:30.988Z,39.9
2018-04-27T09:00:31.050Z,40.1
2018-04-27T09:01:31.065Z,40.4
2018-04-27T09:02:31.169Z,40.6
2018-04-27T09:03:31.235Z,40.9
2018-04-27T09:04:31.297Z,41.1
2018-04-27T09:05:31.357Z,41.2
2018-04-27T09:06:31.427Z,41.4
2018-04-27T09:07:31.448Z,41.6
2018-04-27T09:08:31.510Z,41.7
2018-04-27T09:09:31.583Z,42
2018-04-27T09:10:31.626Z,42.2
2018-04-27T09:11:31.695Z,42.6
2018-04-27T09:12:31.754Z,42.9
2018-04-27T09:13:31.811Z,43.3
2018-04-27T09:14:31.875Z,43.6
2018-04-27T09:15:31.939Z,41.1
2018-04-27T09:16:32.003Z,39
2018-04-27T09:17:32.058Z,37.2
2018-04-27T09:18:32.128Z,35.7
2018-04-27T09:19:32.181Z,34.5
2018-04-27T09:20:32.274Z,35.4
2018-04-27T09:21:32.393Z,35.2
2018-04-27T09:22:32.384Z,33.7
2018-04-27T09:23:32.474Z,33.2
2018-04-27T09:24:32.543Z,32.2
2018-04-27T09:25:32.560Z,33.9
2018-04-27T09:26:32.636Z,35
2018-04-27T09:27:32.719Z,33.6
2018-04-27T09:28:32.750Z,34.1
2018-04-27T09:29:32.802Z,33.9
2018-04-27T09:30:32.877Z,34.7
2018-04-27T09:31:32.921Z,34.6
2018-04-27T09:32:32.987Z,32.9
2018-04-27T09:33:33.054Z,31.6
2018-04-27T09:34:33.121Z,30.5
2018-04-27T09:35:33.195Z,29.5
2018-04-27T09:36:33.277Z,28.6
2018-04-27T09:37:33.296Z,27.8
2018-04-27T09:38:33.414Z,27.1
2018-04-27T09:39:33.442Z,26.6
2018-04-27T09:40:34.238Z,26
2018-04-27T09:41:33.600Z,25.5
2018-04-27T09:42:33.647Z,25
2018-04-27T09:43:33.749Z,24.6
2018-04-27T09:44:33.763Z,24.9
2018-04-27T09:45:33.784Z,25.6
2018-04-27T09:46:33.899Z,26.1
2018-04-27T09:47:33.965Z,25.5
2018-04-27T09:48:34.019Z,25
2018-04-27T09:49:34.065Z,24.6
2018-04-27T09:50:34.122Z,24.3
2018-04-27T09:51:34.207Z,24
2018-04-27T09:52:34.478Z,23.7
2018-04-27T09:53:34.494Z,23.4
2018-04-27T09:54:34.568Z,23.1
2018-04-27T09:55:34.613Z,22.9
2018-04-27T09:56:34.694Z,22.8
2018-04-27T09:57:34.841Z,22.5
2018-04-27T09:58:34.811Z,22.4
2018-04-27T09:59:34.904Z,22.2
2018-04-27T10:01:34.981Z,22.1
2018-04-27T10:05:35.271Z,22.2
2018-04-27T10:06:35.344Z,22.8
2018-04-27T10:07:35.380Z,23.5
2018-04-27T10:09:35.490Z,23.4
2018-04-27T10:12:35.668Z,23.5
2018-04-27T10:13:35.743Z,23.7
2018-04-27T10:14:35.837Z,24.5
2018-04-27T10:15:35.850Z,25.4
2018-04-27T10:16:35.918Z,26.1
2018-04-27T10:17:35.985Z,26.5
2018-04-27T10:18:36.034Z,27
2018-04-27T10:19:36.093Z,27.6
2018-04-27T10:20:36.162Z,28.1
2018-04-27T10:21:36.239Z,28.5
2018-04-27T10:22:36.298Z,28.9
2018-04-27T10:23:36.356Z,29.3
2018-04-27T10:24:36.466Z,29.6
2018-04-27T10:26:36.552Z,29.1
2018-04-27T10:27:36.632Z,29.8
2018-04-27T10:28:36.706Z,30.5
2018-04-27T10:29:36.770Z,31.2
2018-04-27T10:30:36.804Z,31.9
2018-04-27T10:31:36.859Z,32.4
2018-04-27T10:32:36.944Z,32.7
2018-04-27T10:33:36.994Z,33
2018-04-27T10:34:37.080Z,33.2
2018-04-27T10:35:37.128Z,33.5
2018-04-27T10:36:37.295Z,33.7
2018-04-27T10:37:37.287Z,34
2018-04-27T10:38:37.318Z,34.4
2018-04-27T10:39:37.369Z,33.9
2018-04-27T10:40:37.418Z,32.7
2018-04-27T10:41:37.473Z,32
2018-04-27T10:42:37.560Z,32.4
2018-04-27T10:44:37.665Z,32.2
2018-04-27T10:45:37.717Z,32.1
2018-04-27T10:46:37.757Z,32.2
2018-04-27T10:47:37.830Z,32.5
2018-04-27T10:48:37.879Z,32.6
2018-04-27T10:49:37.945Z,33
2018-04-27T10:50:38.003Z,33.2
2018-04-27T10:51:38.067Z,33.5
2018-04-27T10:52:38.134Z,33.6
2018-04-27T10:54:38.325Z,33.4
2018-04-27T10:55:38.369Z,32.9
2018-04-27T10:56:38.491Z,32.6
2018-04-27T10:58:38.539Z,32.5
2018-04-27T11:00:38.652Z,32.6
2018-04-27T11:02:38.778Z,32.7
2018-04-27T11:03:38.820Z,33.1
2018-04-27T11:04:38.865Z,33.6
2018-04-27T11:05:38.923Z,34
2018-04-27T11:06:39.025Z,34.4
2018-04-27T11:07:39.115Z,34.5
2018-04-27T11:08:39.117Z,35
2018-04-27T11:09:39.213Z,35.5
2018-04-27T11:10:39.246Z,35.7
2018-04-27T11:11:39.296Z,35.9
2018-04-27T11:12:39.377Z,35.7
2018-04-27T11:13:39.464Z,35.6
2018-04-27T11:14:39.552Z,35.4
2018-04-27T11:15:39.598Z,35
2018-04-27T11:16:39.685Z,34.6
2018-04-27T11:17:39.741Z,34.4
2018-04-27T11:18:39.775Z,34
2018-04-27T11:19:39.869Z,33.7
2018-04-27T11:20:39.883Z,33.4
2018-04-27T11:21:39.952Z,33
2018-04-27T11:22:40.049Z,32.7
2018-04-27T11:23:40.041Z,32.5
2018-04-27T11:24:40.144Z,32.4
2018-04-27T11:25:40.220Z,32.1
2018-04-27T11:26:40.306Z,31.9
2018-04-27T11:27:40.320Z,31.8
2018-04-27T11:28:40.470Z,31.6
2018-04-27T11:29:40.441Z,31.5
2018-04-27T11:30:40.483Z,31.4
2018-04-27T11:31:40.585Z,31.2
2018-04-27T11:33:40.666Z,31.1
2018-04-27T11:34:40.719Z,31
2018-04-27T11:35:40.786Z,30.8
2018-04-27T11:36:40.846Z,30.5
2018-04-27T11:37:40.925Z,30.3
2018-04-27T11:38:40.982Z,30
2018-04-27T11:39:41.070Z,29.8
2018-04-27T11:40:41.137Z,29.5
2018-04-27T11:41:41.190Z,29.4
2018-04-27T11:42:41.265Z,29.1
2018-04-27T11:43:41.334Z,29
2018-04-27T11:44:41.352Z,28.9
2018-04-27T11:45:41.460Z,28.6
2018-04-27T11:46:41.548Z,28.4
2018-04-27T11:47:41.555Z,28.3
2018-04-27T11:48:41.607Z,28.1
2018-04-27T11:49:41.673Z,28
2018-04-27T11:50:41.751Z,27.8
2018-04-27T11:52:41.849Z,27.6
2018-04-27T11:55:42.010Z,27.8
2018-04-27T11:59:42.261Z,27.6
2018-04-27T12:00:42.338Z,27.5
2018-04-27T12:04:42.594Z,27.4
2018-04-27T12:06:42.694Z,27.5
2018-04-27T12:07:42.754Z,27.6
2018-04-27T12:10:43.024Z,27.8
2018-04-27T12:12:43.104Z,27.9
2018-04-27T12:14:43.233Z,28
2018-04-27T12:18:43.444Z,28.1
2018-04-27T12:19:43.521Z,27.9
2018-04-27T12:20:43.600Z,28.4
2018-04-27T12:21:43.613Z,28.3
2018-04-27T12:22:43.679Z,27.9
2018-04-27T12:23:43.738Z,27.5
2018-04-27T12:24:43.798Z,27.2
2018-04-27T12:25:43.875Z,27
2018-04-27T12:26:43.927Z,26.8
2018-04-27T12:28:44.090Z,27.1
2018-04-27T12:29:44.106Z,27.9
2018-04-27T12:30:44.169Z,28.5
2018-04-27T12:31:44.425Z,29.1
2018-04-27T12:32:44.334Z,29.8
2018-04-27T12:33:44.404Z,30.4
2018-04-27T12:35:44.538Z,30.6
2018-04-27T12:36:44.565Z,30.1
2018-04-27T12:37:44.677Z,29.8
2018-04-27T12:38:44.708Z,29.4
2018-04-27T12:39:44.744Z,29
2018-04-27T12:40:44.799Z,29.6
2018-04-27T12:41:44.865Z,29.1
2018-04-27T12:42:44.915Z,28.7
2018-04-27T12:43:44.978Z,28.5
2018-04-27T12:44:45.078Z,28.3
2018-04-27T12:45:45.122Z,28.1
2018-04-27T12:46:45.209Z,28
2018-04-27T12:48:45.323Z,28.4
2018-04-27T12:49:45.361Z,29
2018-04-27T12:50:45.422Z,29.6
2018-04-27T12:51:45.543Z,29.9
2018-04-27T12:52:45.565Z,30.5
2018-04-27T12:53:45.626Z,30.8
2018-04-27T12:54:45.702Z,30.9
2018-04-27T12:55:45.750Z,31
2018-04-27T12:56:45.817Z,31.2
2018-04-27T12:57:46.095Z,31.5
2018-04-27T12:58:46.119Z,32
2018-04-27T12:59:46.204Z,32.5
2018-04-27T13:00:46.236Z,33.1
2018-04-27T13:01:46.297Z,33.6
2018-04-27T13:02:46.432Z,34
2018-04-27T13:03:46.417Z,34.2
2018-04-27T13:04:46.537Z,34.5
2018-04-27T13:05:46.564Z,34.6
2018-04-27T13:06:46.645Z,34.4
2018-04-27T13:08:46.718Z,34.5
2018-04-27T13:10:46.845Z,34.2
2018-04-27T13:12:46.961Z,33.5
2018-04-27T13:13:47.070Z,32.9
2018-04-27T13:14:47.097Z,32.4
2018-04-27T13:15:47.200Z,32
2018-04-27T13:16:47.237Z,31.5
2018-04-27T13:17:47.284Z,31
2018-04-27T13:18:47.428Z,30.5
2018-04-27T13:19:47.419Z,30
2018-04-27T13:20:47.501Z,29.5
2018-04-27T13:21:47.542Z,29.1
2018-04-27T13:22:47.602Z,28.7
2018-04-27T13:23:47.742Z,28.5
2018-04-27T13:24:47.730Z,28.1
2018-04-27T13:25:47.798Z,28
2018-04-27T13:26:47.848Z,27.8
2018-04-27T13:27:47.895Z,27.5
2018-04-27T13:29:48.027Z,27.6
2018-04-27T13:30:48.092Z,27.5
2018-04-27T13:31:48.138Z,27.4
2018-04-27T13:32:48.235Z,27.5
2018-04-27T13:33:48.319Z,27.2
2018-04-27T13:34:48.342Z,27.1
2018-04-27T13:35:48.416Z,27
2018-04-27T13:36:48.519Z,26.9
2018-04-27T13:38:48.628Z,27
2018-04-27T13:39:48.739Z,27.2
2018-04-27T13:40:48.740Z,27.4
2018-04-27T13:41:48.807Z,28.1
2018-04-27T13:43:48.926Z,27.8
2018-04-27T13:44:48.992Z,27.4
2018-04-27T13:45:49.099Z,27.1
2018-04-27T13:46:49.105Z,26.9
2018-04-27T13:47:49.183Z,26.6
2018-04-27T13:48:49.217Z,26.4
2018-04-27T13:49:49.263Z,26
2018-04-27T13:50:49.334Z,25.8
2018-04-27T13:51:49.570Z,25.5
2018-04-27T13:52:49.526Z,25.3
2018-04-27T13:53:49.538Z,25
2018-04-27T13:54:49.612Z,24.7
2018-04-27T13:55:49.717Z,24.5
2018-04-27T13:56:49.743Z,24.3
2018-04-27T13:57:49.767Z,24
2018-04-27T13:58:49.811Z,23.9
2018-04-27T13:59:49.869Z,23.7
2018-04-27T14:00:49.942Z,23.6
2018-04-27T14:01:49.998Z,23.5
2018-04-27T14:05:50.311Z,23.7
2018-04-27T14:06:50.361Z,25.3
2018-04-27T14:07:50.405Z,27.4
2018-04-27T14:08:50.462Z,29.3
2018-04-27T14:09:50.565Z,30.6
2018-04-27T14:10:50.582Z,32.1
2018-04-27T14:11:50.639Z,31.5
2018-04-27T14:12:50.693Z,30.8
2018-04-27T14:13:50.812Z,30.5
2018-04-27T14:14:50.833Z,29.8
2018-04-27T14:15:50.864Z,29.1
2018-04-27T14:16:50.983Z,28.6
2018-04-27T14:17:50.986Z,28.1
2018-04-27T14:18:51.118Z,27.8
2018-04-27T14:19:51.135Z,27.6
2018-04-27T14:20:51.202Z,27.2
2018-04-27T14:21:51.337Z,27.1
2018-04-27T14:22:51.297Z,27.5
2018-04-27T14:23:51.382Z,28.7
2018-04-27T14:24:51.533Z,30.1
2018-04-27T14:25:51.485Z,31.8
2018-04-27T14:26:51.622Z,33
2018-04-27T14:27:51.636Z,34.5
2018-04-27T14:28:51.719Z,35.9
2018-04-27T14:29:51.770Z,36.9
2018-04-27T14:30:51.834Z,37.5
2018-04-27T14:31:53.663Z,38
2018-04-27T14:32:51.956Z,38.2
2018-04-27T14:33:52.085Z,38.5
2018-04-27T14:34:52.080Z,39.1
2018-04-27T14:35:52.155Z,39.6
2018-04-27T14:36:52.287Z,39.9
2018-04-27T14:37:52.273Z,40
2018-04-27T14:38:52.328Z,40.8
2018-04-27T14:39:52.386Z,41.1
2018-04-27T14:40:52.450Z,40.4
2018-04-27T14:41:52.531Z,39.4
2018-04-27T14:42:52.542Z,38.9
2018-04-27T14:43:52.639Z,38.5
2018-04-27T14:44:52.657Z,37.2
2018-04-27T14:45:52.799Z,36.6
2018-04-27T14:46:52.837Z,36.4
2018-04-27T14:47:52.841Z,35.7
2018-04-27T14:48:52.913Z,35.6
2018-04-27T14:49:52.963Z,35.2
2018-04-27T14:50:53.022Z,35.1
2018-04-27T14:51:53.167Z,34.9
2018-04-27T14:54:53.317Z,34.7
2018-04-27T14:56:53.450Z,35
2018-04-27T14:57:53.473Z,35.1
2018-04-27T14:58:53.579Z,35.2
2018-04-27T14:59:53.644Z,35.4
2018-04-27T15:00:53.660Z,36
2018-04-27T15:01:53.725Z,36.5
2018-04-27T15:03:53.862Z,35.9
2018-04-27T15:04:53.893Z,35.5
2018-04-27T15:05:53.960Z,34.7
2018-04-27T15:06:54.036Z,34.1
2018-04-27T15:07:54.114Z,33.6
2018-04-27T15:08:54.136Z,33.4
2018-04-27T15:09:54.245Z,32.9
2018-04-27T15:10:54.309Z,32.1
2018-04-27T15:11:54.954Z,31.4
2018-04-27T15:12:54.433Z,30.9
2018-04-27T15:13:54.490Z,30.6
2018-04-27T15:14:54.553Z,30.9
2018-04-27T15:15:54.612Z,30.6
2018-04-27T15:16:54.722Z,30.5
2018-04-27T15:17:54.731Z,30.3
2018-04-27T15:18:54.816Z,30.1
2018-04-27T15:19:54.855Z,29.5
2018-04-27T15:20:54.923Z,29
2018-04-27T15:21:55.037Z,28.6
2018-04-27T15:22:55.027Z,28.5
2018-04-27T15:23:55.113Z,29.3
2018-04-27T15:25:55.186Z,28.7
2018-04-27T15:26:55.352Z,28.1
2018-04-27T15:27:55.321Z,27.6
2018-04-27T15:28:55.459Z,27
2018-04-27T15:29:55.498Z,26.6
2018-04-27T15:30:55.518Z,26.1
2018-04-27T15:31:55.970Z,25.8
2018-04-27T15:32:55.684Z,25.6
2018-04-27T15:34:55.830Z,25.3
2018-04-27T15:35:55.824Z,25.1
2018-04-27T15:36:55.868Z,24.9
2018-04-27T15:38:55.987Z,25.1
2018-04-27T15:39:56.067Z,25
2018-04-27T15:40:56.114Z,24.9
2018-04-27T15:41:56.185Z,24.7
2018-04-27T15:42:56.267Z,24.6
2018-04-27T15:44:56.375Z,24.5
2018-04-27T15:45:56.475Z,24.3
2018-04-27T15:46:56.514Z,24.1
2018-04-27T15:48:56.624Z,24.7
2018-04-27T15:50:56.736Z,24.5
2018-04-27T15:51:56.866Z,24.4
2018-04-27T15:53:56.928Z,24.5
2018-04-27T15:54:56.975Z,24.9
2018-04-27T15:55:57.043Z,25
2018-04-27T15:57:57.198Z,24.9
2018-04-27T15:59:57.298Z,25.3
2018-04-27T16:00:57.413Z,25.9
2018-04-27T16:01:57.454Z,26.5
2018-04-27T16:02:57.511Z,26.6
2018-04-27T16:06:57.753Z,28
2018-04-27T16:07:57.813Z,28.1
2018-04-27T16:08:57.883Z,28.4
2018-04-27T16:09:57.963Z,29
2018-04-27T16:10:58.015Z,29.4
2018-04-27T16:11:58.059Z,29.9
2018-04-27T16:12:58.127Z,30.4
2018-04-27T16:13:58.184Z,30.9
2018-04-27T16:14:58.284Z,31.2
2018-04-27T16:15:58.321Z,31.5
2018-04-27T16:16:58.380Z,31.9
2018-04-27T16:17:58.436Z,32.2
2018-04-27T16:18:58.503Z,32.5
2018-04-27T16:19:58.559Z,32.4
2018-04-27T16:20:58.577Z,31
2018-04-27T16:21:58.656Z,29.9
2018-04-27T16:22:58.701Z,28.9
2018-04-27T16:23:58.772Z,28.6
2018-04-27T16:24:58.863Z,28.9
2018-04-27T16:25:58.886Z,28.6
2018-04-27T16:26:58.947Z,28.4
2018-04-27T16:27:59.011Z,28.3
2018-04-27T16:28:59.075Z,28.5
2018-04-27T16:29:59.135Z,28.6
2018-04-27T16:30:59.280Z,28.7
2018-04-27T16:31:59.300Z,29
2018-04-27T16:32:59.344Z,28.7
2018-04-27T16:33:59.393Z,28.9
2018-04-27T16:34:59.512Z,28.7
2018-04-27T16:35:59.533Z,28.3
2018-04-27T16:36:59.624Z,27.9
2018-04-27T16:37:59.704Z,27
2018-04-27T16:38:59.691Z,26.5
2018-04-27T16:39:59.768Z,25.9
2018-04-27T16:40:59.843Z,25.3
2018-04-27T16:41:59.958Z,24.7
2018-04-27T16:42:59.937Z,24.3
2018-04-27T16:44:00.000Z,23.6
2018-04-27T16:45:00.057Z,23.3
2018-04-27T16:46:00.122Z,22.8
2018-04-27T16:47:00.186Z,22.5
2018-04-27T16:48:01.868Z,22.1
2018-04-27T16:49:01.622Z,21.9
2018-04-27T16:50:01.846Z,21.6
2018-04-27T16:51:00.912Z,21.4
2018-04-27T16:52:01.018Z,21.1
2018-04-27T16:53:01.894Z,20.9
2018-04-27T16:54:01.776Z,20.6
2018-04-27T16:55:01.485Z,20.5
2018-04-27T16:56:01.541Z,20.4
2018-04-27T16:57:00.904Z,20.1
2018-04-27T16:58:02.077Z,20
2018-04-27T16:59:01.139Z,19.9
2018-04-27T17:01:01.996Z,19.6
2018-04-27T17:02:01.599Z,19.5
2018-04-27T17:03:01.586Z,19.4
2018-04-27T17:05:01.329Z,19.1
2018-04-27T17:07:01.699Z,19
2018-04-27T17:08:01.586Z,18.9
2018-04-27T17:09:01.667Z,18.8
2018-04-27T17:10:01.612Z,18.6
2018-04-27T17:11:01.673Z,18.5
2018-04-27T17:13:01.805Z,18.4
2018-04-27T17:14:01.844Z,18.3
2018-04-27T17:15:01.955Z,18.1
2018-04-27T17:16:02.016Z,18
2018-04-27T17:17:02.141Z,17.9
2018-04-27T17:18:02.155Z,17.8
2018-04-27T17:20:02.237Z,17.6
2018-04-27T17:21:02.334Z,17.5
2018-04-27T17:22:02.399Z,17.4
2018-04-27T17:24:02.466Z,17.2
2018-04-27T17:25:02.575Z,17.1
2018-04-27T17:27:02.654Z,17
2018-04-27T17:30:02.846Z,16.9
2018-04-27T17:34:03.255Z,16.8
2018-04-27T17:37:03.427Z,16.6
2018-04-27T17:39:03.435Z,16.5
2018-04-27T17:42:03.615Z,16.4
2018-04-27T17:44:03.766Z,16.3
2018-04-27T17:48:04.041Z,16.1
2018-04-27T17:51:04.198Z,16
2018-04-27T17:54:04.353Z,15.9
2018-04-27T17:56:04.550Z,15.8
2018-04-27T17:59:04.676Z,15.6
2018-04-27T18:01:04.790Z,15.5
2018-04-27T18:03:04.860Z,15.4
2018-04-27T18:06:05.124Z,15.3
2018-04-27T18:07:05.162Z,15.1
2018-04-27T18:10:05.346Z,15
2018-04-27T18:14:05.601Z,14.9
2018-04-27T18:16:05.687Z,14.7
2018-04-27T18:19:05.899Z,14.6
2018-04-27T18:22:06.035Z,14.5
2018-04-27T18:25:06.216Z,14.4
2018-04-27T18:28:06.469Z,14.3
2018-04-27T18:30:06.572Z,14.1
2018-04-27T18:32:06.722Z,14
2018-04-27T18:34:06.819Z,13.9
2018-04-27T18:35:06.868Z,13.8
2018-04-27T18:38:07.062Z,13.6
2018-04-27T18:41:07.250Z,13.5
2018-04-27T18:44:07.455Z,13.4
2018-04-27T18:50:07.765Z,13.3
2018-04-27T18:54:08.024Z,13.1
2018-04-27T18:57:08.185Z,13
2018-04-27T19:02:08.561Z,12.9
2018-04-27T19:06:08.752Z,12.8
2018-04-27T19:14:09.284Z,12.6
2018-04-27T19:21:09.748Z,12.5
2018-04-27T19:29:10.231Z,12.4
2018-04-27T19:35:10.578Z,12.2
2018-04-27T19:40:10.837Z,12.1
2018-04-27T19:45:11.142Z,12
2018-04-27T19:52:11.587Z,11.9
2018-04-27T19:57:11.880Z,11.8
2018-04-27T20:02:12.229Z,11.6
2018-04-27T20:15:13.088Z,11.5
2018-04-27T20:20:13.337Z,11.4
2018-04-27T20:23:13.482Z,11.3
2018-04-27T20:28:13.794Z,11.1
2018-04-27T20:31:13.983Z,11
2018-04-27T20:38:14.444Z,10.9
2018-04-27T20:45:14.844Z,10.8
2018-04-27T20:49:15.099Z,10.6
2018-04-27T20:53:15.377Z,10.5
2018-04-27T20:57:15.621Z,10.4
2018-04-27T21:01:15.848Z,10.3
2018-04-27T21:04:16.030Z,10.1
2018-04-27T21:07:16.231Z,10
2018-04-27T21:11:16.473Z,9.9
2018-04-27T21:15:16.704Z,9.8
2018-04-27T21:18:16.876Z,9.6
2018-04-27T21:20:17.008Z,9.5
2018-04-27T21:24:17.261Z,9.4
2018-04-27T21:28:17.509Z,9.3
2018-04-27T21:33:17.795Z,9.1
2018-04-27T21:37:18.053Z,9
2018-04-27T21:42:18.374Z,8.9
2018-04-27T21:47:18.684Z,8.8
2018-04-27T21:56:19.285Z,8.6
2018-04-27T22:05:19.754Z,8.5
2018-04-27T22:06:19.844Z,8.6
2018-04-27T22:17:20.548Z,8.8
2018-04-27T22:25:21.037Z,8.9
2018-04-27T22:47:22.386Z,8.8
2018-04-27T22:52:22.648Z,8.6
2018-04-27T22:58:23.014Z,8.5
2018-04-27T23:08:23.628Z,8.4
2018-04-27T23:25:24.713Z,8.3
2018-04-27T23:34:25.264Z,8.1
2018-04-27T23:44:25.867Z,8
2018-04-27T23:57:26.645Z,8.1
2018-04-27T23:58:26.711Z,8
2018-04-27T23:59:26.763Z,8.1
